sensor_id;sensor_type;location;lat;lon;timestamp;pressure;altitude;pressure_sealevel;temperature;humidity
64298;BME280;50639;53.270;7.956;2023-01-30T00:00:22;102107.25;;;5.88;100.00
64298;BME280;50639;53.270;7.956;2023-01-30T00:02:48;101994.50;;;5.86;100.00
64298;BME280;50639;53.270;7.956;2023-01-30T00:05:13;101972.78;;;5.89;100.00
64298;BME280;50639;53.270;7.956;2023-01-30T00:07:39;101935.09;;;5.92;100.00
64298;BME280;50639;53.270;7.956;2023-01-30T00:10:05;101938.91;;;5.98;100.00
64298;BME280;50639;53.270;7.956;2023-01-30T00:12:30;101824.31;;;5.96;100.00
64298;BME280;50639;53.270;7.956;2023-01-30T00:14:56;101830.13;;;6.00;100.00
64298;BME280;50639;53.270;7.956;2023-01-30T00:17:21;101817.91;;;6.05;100.00
64298;BME280;50639;53.270;7.956;2023-01-30T00:19:46;101786.53;;;6.07;100.00
64298;BME280;50639;53.270;7.956;2023-01-30T00:22:12;101742.16;;;6.06;100.00
64298;BME280;50639;53.270;7.956;2023-01-30T00:24:37;101718.78;;;6.08;100.00
64298;BME280;50639;53.270;7.956;2023-01-30T00:27:03;101704.09;;;6.12;100.00
64298;BME280;50639;53.270;7.956;2023-01-30T00:29:28;101710.06;;;6.14;100.00
64298;BME280;50639;53.270;7.956;2023-01-30T00:31:53;101786.81;;;6.20;100.00
64298;BME280;50639;53.270;7.956;2023-01-30T00:34:19;101741.03;;;6.23;100.00
64298;BME280;50639;53.270;7.956;2023-01-30T00:36:44;101761.88;;;6.28;100.00
64298;BME280;50639;53.270;7.956;2023-01-30T00:39:10;101742.00;;;6.30;100.00
64298;BME280;50639;53.270;7.956;2023-01-30T00:41:35;101669.91;;;6.30;100.00
64298;BME280;50639;53.270;7.956;2023-01-30T00:44:19;101749.97;;;6.38;100.00
64298;BME280;50639;53.270;7.956;2023-01-30T00:47:03;101772.28;;;6.45;100.00
64298;BME280;50639;53.270;7.956;2023-01-30T00:49:33;101771.09;;;6.48;100.00
64298;BME280;50639;53.270;7.956;2023-01-30T00:52:00;101764.38;;;6.52;100.00
64298;BME280;50639;53.270;7.956;2023-01-30T00:54:25;101711.97;;;6.51;100.00
64298;BME280;50639;53.270;7.956;2023-01-30T00:56:51;101728.28;;;6.56;100.00
64298;BME280;50639;53.270;7.956;2023-01-30T00:59:16;101710.03;;;6.59;100.00
64298;BME280;50639;53.270;7.956;2023-01-30T01:01:43;101659.47;;;6.58;100.00
64298;BME280;50639;53.270;7.956;2023-01-30T01:04:08;101596.19;;;6.58;100.00
64298;BME280;50639;53.270;7.956;2023-01-30T01:06:38;101671.09;;;6.65;100.00
64298;BME280;50639;53.270;7.956;2023-01-30T01:09:04;101623.81;;;6.65;100.00
64298;BME280;50639;53.270;7.956;2023-01-30T01:11:30;101565.41;;;6.62;100.00
64298;BME280;50639;53.270;7.956;2023-01-30T01:14:00;101596.09;;;6.66;100.00
64298;BME280;50639;53.270;7.956;2023-01-30T01:16:28;101587.88;;;6.68;100.00
64298;BME280;50639;53.270;7.956;2023-01-30T01:18:56;101537.97;;;6.68;100.00
64298;BME280;50639;53.270;7.956;2023-01-30T01:21:22;101507.53;;;6.69;100.00
64298;BME280;50639;53.270;7.956;2023-01-30T01:23:52;101468.47;;;6.68;100.00
64298;BME280;50639;53.270;7.956;2023-01-30T01:26:18;101378.00;;;6.65;100.00
64298;BME280;50639;53.270;7.956;2023-01-30T01:28:44;101370.59;;;6.67;100.00
64298;BME280;50639;53.270;7.956;2023-01-30T01:31:12;101292.06;;;6.62;100.00
64298;BME280;50639;53.270;7.956;2023-01-30T01:33:38;101262.47;;;6.63;100.00
64298;BME280;50639;53.270;7.956;2023-01-30T01:36:04;101212.34;;;6.65;100.00
64298;BME280;50639;53.270;7.956;2023-01-30T01:38:30;101207.81;;;6.66;100.00
64298;BME280;50639;53.270;7.956;2023-01-30T01:40:56;101149.44;;;6.63;100.00
64298;BME280;50639;53.270;7.956;2023-01-30T01:43:56;101094.78;;;6.65;100.00
64298;BME280;50639;53.270;7.956;2023-01-30T01:46:27;100936.94;;;6.60;100.00
64298;BME280;50639;53.270;7.956;2023-01-30T01:48:57;100933.84;;;6.63;100.00
64298;BME280;50639;53.270;7.956;2023-01-30T01:54:40;100888.03;;;6.66;100.00
64298;BME280;50639;53.270;7.956;2023-01-30T01:57:06;100843.63;;;6.65;100.00
64298;BME280;50639;53.270;7.956;2023-01-30T01:59:36;100777.88;;;6.64;100.00
64298;BME280;50639;53.270;7.956;2023-01-30T02:02:06;100733.94;;;6.67;100.00
64298;BME280;50639;53.270;7.956;2023-01-30T02:04:35;100588.00;;;6.72;100.00
64298;BME280;50639;53.270;7.956;2023-01-30T02:07:21;100521.00;;;6.74;100.00
64298;BME280;50639;53.270;7.956;2023-01-30T02:09:48;100523.66;;;6.81;100.00
64298;BME280;50639;53.270;7.956;2023-01-30T02:12:14;100468.56;;;6.80;100.00
64298;BME280;50639;53.270;7.956;2023-01-30T02:14:40;100494.88;;;6.83;100.00
64298;BME280;50639;53.270;7.956;2023-01-30T02:17:05;100372.97;;;6.82;100.00
64298;BME280;50639;53.270;7.956;2023-01-30T02:36:16;100662.56;;;7.07;100.00
64298;BME280;50639;53.270;7.956;2023-01-30T02:39:05;100676.34;;;7.10;100.00
64298;BME280;50639;53.270;7.956;2023-01-30T02:41:38;100628.22;;;7.10;100.00
64298;BME280;50639;53.270;7.956;2023-01-30T02:44:19;100620.81;;;7.12;100.00
64298;BME280;50639;53.270;7.956;2023-01-30T02:46:56;100633.16;;;7.13;100.00
64298;BME280;50639;53.270;7.956;2023-01-30T02:49:31;100643.22;;;7.18;100.00
64298;BME280;50639;53.270;7.956;2023-01-30T02:52:00;100631.09;;;7.22;100.00
64298;BME280;50639;53.270;7.956;2023-01-30T02:54:27;100650.38;;;7.30;100.00
64298;BME280;50639;53.270;7.956;2023-01-30T02:56:57;100728.34;;;7.27;100.00
64298;BME280;50639;53.270;7.956;2023-01-30T02:59:30;100776.28;;;7.29;100.00
64298;BME280;50639;53.270;7.956;2023-01-30T03:04:56;100812.06;;;7.34;100.00
64298;BME280;50639;53.270;7.956;2023-01-30T03:10:36;100813.50;;;7.37;100.00
64298;BME280;50639;53.270;7.956;2023-01-30T03:16:04;100778.50;;;7.45;100.00
64298;BME280;50639;53.270;7.956;2023-01-30T03:18:31;100611.03;;;7.44;100.00
64298;BME280;50639;53.270;7.956;2023-01-30T03:21:03;100640.84;;;7.47;100.00
64298;BME280;50639;53.270;7.956;2023-01-30T03:23:29;100640.63;;;7.55;100.00
64298;BME280;50639;53.270;7.956;2023-01-30T03:25:55;100615.31;;;7.51;100.00
64298;BME280;50639;53.270;7.956;2023-01-30T03:28:21;100595.31;;;7.60;100.00
64298;BME280;50639;53.270;7.956;2023-01-30T03:30:48;100553.31;;;7.61;100.00
64298;BME280;50639;53.270;7.956;2023-01-30T03:33:13;100520.00;;;7.57;100.00
64298;BME280;50639;53.270;7.956;2023-01-30T03:35:43;100410.81;;;7.47;100.00
64298;BME280;50639;53.270;7.956;2023-01-30T03:38:11;100283.28;;;7.23;100.00
64298;BME280;50639;53.270;7.956;2023-01-30T03:40:38;100265.31;;;7.06;100.00
64298;BME280;50639;53.270;7.956;2023-01-30T03:43:03;100247.59;;;6.87;100.00
64298;BME280;50639;53.270;7.956;2023-01-30T03:45:29;100274.13;;;6.82;100.00
64298;BME280;50639;53.270;7.956;2023-01-30T03:47:54;100241.56;;;6.66;100.00
64298;BME280;50639;53.270;7.956;2023-01-30T03:50:20;100269.75;;;6.62;100.00
64298;BME280;50639;53.270;7.956;2023-01-30T03:52:45;100244.06;;;6.61;100.00
64298;BME280;50639;53.270;7.956;2023-01-30T03:55:14;100286.41;;;6.58;100.00
64298;BME280;50639;53.270;7.956;2023-01-30T03:57:40;100242.22;;;6.62;100.00
64298;BME280;50639;53.270;7.956;2023-01-30T04:00:06;100252.91;;;6.62;100.00
64298;BME280;50639;53.270;7.956;2023-01-30T04:02:41;100300.75;;;6.63;100.00
64298;BME280;50639;53.270;7.956;2023-01-30T04:05:08;100200.88;;;6.71;100.00
64298;BME280;50639;53.270;7.956;2023-01-30T04:07:41;100204.50;;;6.77;100.00
64298;BME280;50639;53.270;7.956;2023-01-30T04:10:08;100193.78;;;6.83;100.00
64298;BME280;50639;53.270;7.956;2023-01-30T04:12:35;100192.50;;;6.86;100.00
64298;BME280;50639;53.270;7.956;2023-01-30T04:15:02;100180.56;;;6.88;100.00
64298;BME280;50639;53.270;7.956;2023-01-30T04:17:42;100183.47;;;6.87;100.00
64298;BME280;50639;53.270;7.956;2023-01-30T04:20:23;100208.75;;;6.84;100.00
64298;BME280;50639;53.270;7.956;2023-01-30T04:22:53;100252.09;;;6.86;100.00
64298;BME280;50639;53.270;7.956;2023-01-30T04:25:20;100254.41;;;6.83;100.00
64298;BME280;50639;53.270;7.956;2023-01-30T04:27:45;100238.19;;;6.78;100.00
64298;BME280;50639;53.270;7.956;2023-01-30T04:30:15;100283.59;;;6.78;100.00
64298;BME280;50639;53.270;7.956;2023-01-30T04:32:41;100274.38;;;6.73;100.00
64298;BME280;50639;53.270;7.956;2023-01-30T04:35:09;100280.78;;;6.72;100.00
64298;BME280;50639;53.270;7.956;2023-01-30T04:37:35;100331.09;;;6.75;100.00
64298;BME280;50639;53.270;7.956;2023-01-30T04:40:00;100392.53;;;6.75;100.00
64298;BME280;50639;53.270;7.956;2023-01-30T04:45:25;100637.31;;;6.70;100.00
64298;BME280;50639;53.270;7.956;2023-01-30T04:47:51;100765.53;;;6.63;100.00
64298;BME280;50639;53.270;7.956;2023-01-30T04:50:16;100910.59;;;6.57;100.00
64298;BME280;50639;53.270;7.956;2023-01-30T04:52:42;101065.94;;;6.54;100.00
64298;BME280;50639;53.270;7.956;2023-01-30T04:55:09;101363.84;;;6.50;100.00
64298;BME280;50639;53.270;7.956;2023-01-30T04:57:35;101538.13;;;6.52;100.00
64298;BME280;50639;53.270;7.956;2023-01-30T05:00:00;101643.72;;;6.48;100.00
64298;BME280;50639;53.270;7.956;2023-01-30T05:02:26;101795.97;;;6.48;100.00
64298;BME280;50639;53.270;7.956;2023-01-30T05:04:51;101916.53;;;6.45;100.00
64298;BME280;50639;53.270;7.956;2023-01-30T05:07:17;102006.56;;;6.45;100.00
64298;BME280;50639;53.270;7.956;2023-01-30T05:09:42;102107.22;;;6.44;100.00
64298;BME280;50639;53.270;7.956;2023-01-30T05:12:08;102177.50;;;6.37;100.00
64298;BME280;50639;53.270;7.956;2023-01-30T05:14:33;102272.03;;;6.36;100.00
64298;BME280;50639;53.270;7.956;2023-01-30T05:16:59;102412.47;;;6.38;100.00
64298;BME280;50639;53.270;7.956;2023-01-30T05:19:25;102576.63;;;6.44;100.00
64298;BME280;50639;53.270;7.956;2023-01-30T05:21:50;102643.59;;;6.42;100.00
64298;BME280;50639;53.270;7.956;2023-01-30T05:24:16;102767.88;;;6.46;100.00
64298;BME280;50639;53.270;7.956;2023-01-30T05:26:41;102860.38;;;6.47;100.00
64298;BME280;50639;53.270;7.956;2023-01-30T05:29:08;102892.63;;;6.46;100.00
64298;BME280;50639;53.270;7.956;2023-01-30T05:31:34;102970.09;;;6.46;100.00
64298;BME280;50639;53.270;7.956;2023-01-30T05:33:59;103062.09;;;6.43;100.00
64298;BME280;50639;53.270;7.956;2023-01-30T05:36:25;103144.53;;;6.38;100.00
64298;BME280;50639;53.270;7.956;2023-01-30T05:38:50;103319.06;;;6.39;100.00
64298;BME280;50639;53.270;7.956;2023-01-30T05:41:16;103499.09;;;6.38;100.00
64298;BME280;50639;53.270;7.956;2023-01-30T05:43:42;103751.50;;;6.45;100.00
64298;BME280;50639;53.270;7.956;2023-01-30T05:46:11;104040.44;;;6.53;100.00
64298;BME280;50639;53.270;7.956;2023-01-30T05:48:37;104319.94;;;6.57;100.00
64298;BME280;50639;53.270;7.956;2023-01-30T05:51:03;104493.00;;;6.55;100.00
64298;BME280;50639;53.270;7.956;2023-01-30T05:53:31;104671.19;;;6.56;100.00
64298;BME280;50639;53.270;7.956;2023-01-30T05:56:01;104828.09;;;6.55;100.00
64298;BME280;50639;53.270;7.956;2023-01-30T05:58:27;104921.69;;;6.55;100.00
64298;BME280;50639;53.270;7.956;2023-01-30T06:00:53;105011.78;;;6.55;100.00
64298;BME280;50639;53.270;7.956;2023-01-30T06:03:18;105052.19;;;6.50;100.00
64298;BME280;50639;53.270;7.956;2023-01-30T06:05:44;105032.88;;;6.45;100.00
64298;BME280;50639;53.270;7.956;2023-01-30T06:08:10;104958.31;;;6.41;100.00
64298;BME280;50639;53.270;7.956;2023-01-30T06:10:35;105104.31;;;6.43;100.00
64298;BME280;50639;53.270;7.956;2023-01-30T06:13:01;105202.69;;;6.38;100.00
64298;BME280;50639;53.270;7.956;2023-01-30T06:15:27;105427.09;;;6.41;100.00
64298;BME280;50639;53.270;7.956;2023-01-30T06:17:52;105466.78;;;6.33;100.00
64298;BME280;50639;53.270;7.956;2023-01-30T06:20:17;105662.75;;;6.35;100.00
64298;BME280;50639;53.270;7.956;2023-01-30T06:22:43;105833.81;;;6.37;100.00
64298;BME280;50639;53.270;7.956;2023-01-30T06:25:08;105917.00;;;6.31;100.00
64298;BME280;50639;53.270;7.956;2023-01-30T06:27:34;106061.41;;;6.31;100.00
64298;BME280;50639;53.270;7.956;2023-01-30T06:30:00;106240.66;;;6.29;100.00
64298;BME280;50639;53.270;7.956;2023-01-30T06:32:25;106407.41;;;6.28;100.00
64298;BME280;50639;53.270;7.956;2023-01-30T06:34:51;106479.69;;;6.25;100.00
64298;BME280;50639;53.270;7.956;2023-01-30T06:37:16;106496.69;;;6.24;100.00
64298;BME280;50639;53.270;7.956;2023-01-30T06:39:42;106448.56;;;6.24;100.00
64298;BME280;50639;53.270;7.956;2023-01-30T06:42:07;106432.44;;;6.26;100.00
64298;BME280;50639;53.270;7.956;2023-01-30T06:44:32;106349.63;;;6.24;100.00
64298;BME280;50639;53.270;7.956;2023-01-30T06:46:58;106384.16;;;6.29;100.00
64298;BME280;50639;53.270;7.956;2023-01-30T06:49:23;106381.47;;;6.30;100.00
64298;BME280;50639;53.270;7.956;2023-01-30T06:51:49;106414.41;;;6.31;100.00
64298;BME280;50639;53.270;7.956;2023-01-30T06:54:14;106447.44;;;6.30;100.00
64298;BME280;50639;53.270;7.956;2023-01-30T06:56:39;106482.19;;;6.30;100.00
64298;BME280;50639;53.270;7.956;2023-01-30T06:59:05;106509.81;;;6.30;100.00
64298;BME280;50639;53.270;7.956;2023-01-30T07:01:30;106629.00;;;6.37;100.00
64298;BME280;50639;53.270;7.956;2023-01-30T07:03:56;106704.59;;;6.42;100.00
64298;BME280;50639;53.270;7.956;2023-01-30T07:06:22;106762.50;;;6.43;100.00
64298;BME280;50639;53.270;7.956;2023-01-30T07:08:50;106897.06;;;6.47;100.00
64298;BME280;50639;53.270;7.956;2023-01-30T07:11:15;106949.53;;;6.51;100.00
64298;BME280;50639;53.270;7.956;2023-01-30T07:13:41;106980.75;;;6.50;100.00
64298;BME280;50639;53.270;7.956;2023-01-30T07:16:06;106990.50;;;6.51;100.00
64298;BME280;50639;53.270;7.956;2023-01-30T07:18:32;106956.69;;;6.50;100.00
64298;BME280;50639;53.270;7.956;2023-01-30T07:20:57;106958.53;;;6.48;100.00
64298;BME280;50639;53.270;7.956;2023-01-30T07:23:23;106918.41;;;6.48;100.00
64298;BME280;50639;53.270;7.956;2023-01-30T07:25:48;106976.22;;;6.52;100.00
64298;BME280;50639;53.270;7.956;2023-01-30T07:28:14;107009.94;;;6.58;100.00
64298;BME280;50639;53.270;7.956;2023-01-30T07:30:39;106968.81;;;6.60;100.00
64298;BME280;50639;53.270;7.956;2023-01-30T07:33:05;106977.66;;;6.62;100.00
64298;BME280;50639;53.270;7.956;2023-01-30T07:35:33;107044.44;;;6.67;100.00
64298;BME280;50639;53.270;7.956;2023-01-30T07:37:58;107039.94;;;6.67;100.00
64298;BME280;50639;53.270;7.956;2023-01-30T07:40:24;107048.00;;;6.66;100.00
64298;BME280;50639;53.270;7.956;2023-01-30T07:43:00;107148.63;;;6.71;100.00
64298;BME280;50639;53.270;7.956;2023-01-30T07:45:46;107186.94;;;6.73;100.00
64298;BME280;50639;53.270;7.956;2023-01-30T07:48:17;107149.63;;;6.69;100.00
64298;BME280;50639;53.270;7.956;2023-01-30T07:50:43;107169.28;;;6.68;100.00
64298;BME280;50639;53.270;7.956;2023-01-30T07:53:11;107200.50;;;6.69;100.00
64298;BME280;50639;53.270;7.956;2023-01-30T07:55:37;107299.41;;;6.72;100.00
64298;BME280;50639;53.270;7.956;2023-01-30T07:58:03;107302.16;;;6.70;100.00
64298;BME280;50639;53.270;7.956;2023-01-30T08:00:29;107488.44;;;6.78;100.00
64298;BME280;50639;53.270;7.956;2023-01-30T08:02:55;107640.03;;;6.82;100.00
64298;BME280;50639;53.270;7.956;2023-01-30T08:05:20;107641.84;;;6.81;100.00
64298;BME280;50639;53.270;7.956;2023-01-30T08:07:45;107685.56;;;6.82;100.00
64298;BME280;50639;53.270;7.956;2023-01-30T08:10:14;107636.59;;;6.77;100.00
64298;BME280;50639;53.270;7.956;2023-01-30T08:12:40;107710.59;;;6.81;100.00
64298;BME280;50639;53.270;7.956;2023-01-30T08:15:07;108039.00;;;6.82;100.00
64298;BME280;50639;53.270;7.956;2023-01-30T08:17:32;108176.38;;;6.87;100.00
64298;BME280;50639;53.270;7.956;2023-01-30T08:19:58;108149.63;;;6.87;100.00
64298;BME280;50639;53.270;7.956;2023-01-30T08:22:24;108021.09;;;6.84;100.00
64298;BME280;50639;53.270;7.956;2023-01-30T08:24:49;107728.56;;;6.74;100.00
64298;BME280;50639;53.270;7.956;2023-01-30T08:27:15;107419.22;;;6.64;100.00
64298;BME280;50639;53.270;7.956;2023-01-30T08:29:40;107236.31;;;6.63;100.00
64298;BME280;50639;53.270;7.956;2023-01-30T08:32:06;107196.16;;;6.65;100.00
64298;BME280;50639;53.270;7.956;2023-01-30T08:34:32;107320.84;;;6.72;100.00
64298;BME280;50639;53.270;7.956;2023-01-30T08:36:57;107380.56;;;6.74;100.00
64298;BME280;50639;53.270;7.956;2023-01-30T08:39:23;107466.94;;;6.81;100.00
64298;BME280;50639;53.270;7.956;2023-01-30T08:41:48;107606.91;;;6.86;100.00
64298;BME280;50639;53.270;7.956;2023-01-30T08:44:13;107529.31;;;6.84;100.00
64298;BME280;50639;53.270;7.956;2023-01-30T08:46:39;107268.91;;;6.78;100.00
64298;BME280;50639;53.270;7.956;2023-01-30T08:49:05;107155.75;;;6.72;100.00
64298;BME280;50639;53.270;7.956;2023-01-30T08:51:31;107215.41;;;6.76;100.00
64298;BME280;50639;53.270;7.956;2023-01-30T08:53:57;107299.16;;;6.81;100.00
64298;BME280;50639;53.270;7.956;2023-01-30T08:56:23;107280.44;;;6.81;100.00
64298;BME280;50639;53.270;7.956;2023-01-30T08:58:48;107300.91;;;6.82;100.00
64298;BME280;50639;53.270;7.956;2023-01-30T09:01:14;107340.16;;;6.83;100.00
64298;BME280;50639;53.270;7.956;2023-01-30T09:03:41;107422.97;;;6.89;100.00
64298;BME280;50639;53.270;7.956;2023-01-30T09:06:07;106960.47;;;6.69;100.00
64298;BME280;50639;53.270;7.956;2023-01-30T09:08:33;106472.69;;;6.44;100.00
64298;BME280;50639;53.270;7.956;2023-01-30T09:10:59;106142.66;;;6.28;100.00
64298;BME280;50639;53.270;7.956;2023-01-30T09:13:25;105798.72;;;6.09;100.00
64298;BME280;50639;53.270;7.956;2023-01-30T09:15:51;105539.88;;;6.01;100.00
64298;BME280;50639;53.270;7.956;2023-01-30T09:18:17;105769.09;;;6.13;100.00
64298;BME280;50639;53.270;7.956;2023-01-30T09:20:43;105811.94;;;6.29;100.00
64298;BME280;50639;53.270;7.956;2023-01-30T09:23:08;105698.22;;;6.39;100.00
64298;BME280;50639;53.270;7.956;2023-01-30T09:25:34;105629.16;;;6.47;100.00
64298;BME280;50639;53.270;7.956;2023-01-30T09:27:59;105509.41;;;6.52;100.00
64298;BME280;50639;53.270;7.956;2023-01-30T09:30:25;105459.09;;;6.58;100.00
64298;BME280;50639;53.270;7.956;2023-01-30T09:32:50;105442.28;;;6.56;100.00
64298;BME280;50639;53.270;7.956;2023-01-30T09:35:16;105293.81;;;6.49;100.00
64298;BME280;50639;53.270;7.956;2023-01-30T09:37:49;105210.06;;;6.49;100.00
64298;BME280;50639;53.270;7.956;2023-01-30T09:40:19;105295.34;;;6.53;100.00
64298;BME280;50639;53.270;7.956;2023-01-30T09:43:11;105387.66;;;6.60;100.00
64298;BME280;50639;53.270;7.956;2023-01-30T09:48:33;105282.31;;;6.77;100.00
64298;BME280;50639;53.270;7.956;2023-01-30T09:51:19;105265.94;;;6.82;100.00
64298;BME280;50639;53.270;7.956;2023-01-30T09:56:38;104898.66;;;6.80;100.00
64298;BME280;50639;53.270;7.956;2023-01-30T09:59:04;105000.88;;;6.85;100.00
64298;BME280;50639;53.270;7.956;2023-01-30T10:01:53;105009.84;;;6.84;100.00
64298;BME280;50639;53.270;7.956;2023-01-30T10:04:37;105018.34;;;6.90;100.00
64298;BME280;50639;53.270;7.956;2023-01-30T10:07:26;104863.38;;;6.87;100.00
64298;BME280;50639;53.270;7.956;2023-01-30T10:12:47;105088.38;;;6.97;100.00
64298;BME280;50639;53.270;7.956;2023-01-30T10:20:51;104679.53;;;6.64;100.00
64298;BME280;50639;53.270;7.956;2023-01-30T10:26:22;104219.56;;;6.18;100.00
64298;BME280;50639;53.270;7.956;2023-01-30T10:31:18;104113.31;;;6.22;100.00
64298;BME280;50639;53.270;7.956;2023-01-30T10:34:05;104056.94;;;6.25;100.00
64298;BME280;50639;53.270;7.956;2023-01-30T10:36:35;104083.44;;;6.28;100.00
64298;BME280;50639;53.270;7.956;2023-01-30T10:39:18;104059.13;;;6.31;100.00
64298;BME280;50639;53.270;7.956;2023-01-30T10:42:02;104284.56;;;6.53;100.00
64298;BME280;50639;53.270;7.956;2023-01-30T10:44:31;104220.03;;;6.58;100.00
64298;BME280;50639;53.270;7.956;2023-01-30T10:47:07;104199.63;;;6.57;100.00
64298;BME280;50639;53.270;7.956;2023-01-30T10:49:46;104262.69;;;6.59;100.00
64298;BME280;50639;53.270;7.956;2023-01-30T10:55:09;104527.31;;;6.61;100.00
64298;BME280;50639;53.270;7.956;2023-01-30T10:58:05;104561.56;;;6.56;100.00
64298;BME280;50639;53.270;7.956;2023-01-30T11:00:44;104747.25;;;6.64;100.00
64298;BME280;50639;53.270;7.956;2023-01-30T11:03:33;104968.63;;;6.73;100.00
64298;BME280;50639;53.270;7.956;2023-01-30T11:06:21;105277.25;;;7.01;100.00
64298;BME280;50639;53.270;7.956;2023-01-30T11:08:48;105518.84;;;7.18;100.00
64298;BME280;50639;53.270;7.956;2023-01-30T11:13:48;105699.97;;;7.35;100.00
64298;BME280;50639;53.270;7.956;2023-01-30T11:16:14;106010.81;;;7.32;100.00
64298;BME280;50639;53.270;7.956;2023-01-30T11:18:45;106027.34;;;7.23;100.00
64298;BME280;50639;53.270;7.956;2023-01-30T11:21:31;106328.91;;;7.27;100.00
64298;BME280;50639;53.270;7.956;2023-01-30T11:24:10;106775.16;;;7.31;100.00
64298;BME280;50639;53.270;7.956;2023-01-30T11:26:37;107120.28;;;7.44;100.00
64298;BME280;50639;53.270;7.956;2023-01-30T11:29:26;107421.66;;;7.62;100.00
64298;BME280;50639;53.270;7.956;2023-01-30T11:31:53;107489.34;;;7.70;100.00
64298;BME280;50639;53.270;7.956;2023-01-30T11:34:21;107775.13;;;7.79;100.00
64298;BME280;50639;53.270;7.956;2023-01-30T11:36:47;107788.47;;;7.80;100.00
64298;BME280;50639;53.270;7.956;2023-01-30T11:41:41;108159.94;;;7.99;100.00
64298;BME280;50639;53.270;7.956;2023-01-30T11:44:08;108411.91;;;8.14;100.00
64298;BME280;50639;53.270;7.956;2023-01-30T11:46:36;108325.25;;;8.08;100.00
64298;BME280;50639;53.270;7.956;2023-01-30T11:49:04;108492.50;;;8.08;100.00
64298;BME280;50639;53.270;7.956;2023-01-30T11:51:35;108703.69;;;8.05;100.00
64298;BME280;50639;53.270;7.956;2023-01-30T11:54:04;108724.22;;;8.09;100.00
64298;BME280;50639;53.270;7.956;2023-01-30T11:56:45;108740.38;;;8.03;100.00
64298;BME280;50639;53.270;7.956;2023-01-30T11:59:29;108738.56;;;8.05;100.00
64298;BME280;50639;53.270;7.956;2023-01-30T12:02:16;108742.06;;;8.13;100.00
64298;BME280;50639;53.270;7.956;2023-01-30T12:04:44;108614.09;;;8.13;100.00
64298;BME280;50639;53.270;7.956;2023-01-30T12:07:23;108131.28;;;8.01;100.00
64298;BME280;50639;53.270;7.956;2023-01-30T12:09:49;107542.66;;;7.79;100.00
64298;BME280;50639;53.270;7.956;2023-01-30T12:15:13;105582.56;;;6.66;100.00
64298;BME280;50639;53.270;7.956;2023-01-30T12:20:41;104819.16;;;6.30;100.00
64298;BME280;50639;53.270;7.956;2023-01-30T12:23:17;104502.28;;;6.13;100.00
64298;BME280;50639;53.270;7.956;2023-01-30T12:31:07;104104.69;;;6.18;100.00
64298;BME280;50639;53.270;7.956;2023-01-30T12:33:36;103961.59;;;6.25;100.00
64298;BME280;50639;53.270;7.956;2023-01-30T12:36:26;104027.19;;;6.40;100.00
64298;BME280;50639;53.270;7.956;2023-01-30T12:38:56;104103.97;;;6.60;100.00
64298;BME280;50639;53.270;7.956;2023-01-30T12:41:52;104183.84;;;6.76;100.00
64298;BME280;50639;53.270;7.956;2023-01-30T12:44:56;104366.56;;;6.77;100.00
64298;BME280;50639;53.270;7.956;2023-01-30T12:55:37;105023.31;;;7.09;100.00
64298;BME280;50639;53.270;7.956;2023-01-30T13:01:18;105429.66;;;7.18;100.00
64298;BME280;50639;53.270;7.956;2023-01-30T13:03:51;105643.50;;;7.24;100.00
64298;BME280;50639;53.270;7.956;2023-01-30T13:09:11;106144.56;;;7.35;100.00
64298;BME280;50639;53.270;7.956;2023-01-30T13:12:08;106333.75;;;7.37;100.00
64298;BME280;50639;53.270;7.956;2023-01-30T13:14:42;106624.63;;;7.43;100.00
64298;BME280;50639;53.270;7.956;2023-01-30T13:28:03;107690.66;;;7.61;100.00
64298;BME280;50639;53.270;7.956;2023-01-30T13:30:33;107731.72;;;7.63;100.00
64298;BME280;50639;53.270;7.956;2023-01-30T13:33:03;107765.56;;;7.67;100.00
64298;BME280;50639;53.270;7.956;2023-01-30T13:35:34;107904.84;;;7.73;100.00
64298;BME280;50639;53.270;7.956;2023-01-30T13:38:04;107903.00;;;7.77;100.00
64298;BME280;50639;53.270;7.956;2023-01-30T13:40:35;108129.84;;;7.85;100.00
64298;BME280;50639;53.270;7.956;2023-01-30T13:43:22;108227.19;;;7.92;100.00
64298;BME280;50639;53.270;7.956;2023-01-30T13:45:52;108134.28;;;7.88;100.00
64298;BME280;50639;53.270;7.956;2023-01-30T13:48:22;108027.06;;;7.85;100.00
64298;BME280;50639;53.270;7.956;2023-01-30T13:56:33;108273.53;;;8.00;100.00
64298;BME280;50639;53.270;7.956;2023-01-30T14:09:43;108887.00;;;8.13;100.00
64298;BME280;50639;53.270;7.956;2023-01-30T14:12:17;108912.94;;;8.12;100.00
64298;BME280;50639;53.270;7.956;2023-01-30T14:17:30;108771.59;;;8.10;100.00
64298;BME280;50639;53.270;7.956;2023-01-30T14:19:59;108734.88;;;8.12;100.00
64298;BME280;50639;53.270;7.956;2023-01-30T14:27:54;108974.69;;;8.08;100.00
64298;BME280;50639;53.270;7.956;2023-01-30T14:30:45;108908.53;;;8.07;100.00
64298;BME280;50639;53.270;7.956;2023-01-30T14:38:40;109149.13;;;8.09;100.00
64298;BME280;50639;53.270;7.956;2023-01-30T14:53:53;109005.97;;;8.15;100.00
64298;BME280;50639;53.270;7.956;2023-01-30T14:56:36;109095.44;;;8.12;100.00
64298;BME280;50639;53.270;7.956;2023-01-30T14:59:07;108961.31;;;8.05;100.00
64298;BME280;50639;53.270;7.956;2023-01-30T15:04:39;108988.16;;;8.03;100.00
64298;BME280;50639;53.270;7.956;2023-01-30T15:10:02;108996.25;;;7.99;100.00
64298;BME280;50639;53.270;7.956;2023-01-30T15:26:53;108798.91;;;7.68;100.00
64298;BME280;50639;53.270;7.956;2023-01-30T15:32:22;108707.72;;;7.66;100.00
64298;BME280;50639;53.270;7.956;2023-01-30T15:37:52;108303.03;;;7.51;100.00
64298;BME280;50639;53.270;7.956;2023-01-30T15:40:20;108254.00;;;7.46;100.00
64298;BME280;50639;53.270;7.956;2023-01-30T15:42:57;108213.81;;;7.43;100.00
64298;BME280;50639;53.270;7.956;2023-01-30T15:45:28;108159.44;;;7.36;100.00